Terminal Aerodrome Forecast
Issued by NWS

Home | Current Version | Previous Version | Graphics & Text | Print | Product List | Glossary Off
Versions: 1 2 3 4 5 6 7 8 9 10 11 12 13

000
FTUS43 KMPX 182341
TAFAXN
TAF
KAXN 182341Z 1900/1924 13011G20KT P6SM OVC200
     FM190400 12013KT 6SM -RA OVC050
     FM190700 12015KT 4SM RA BR SCT008 OVC014
     FM191300 31013G21KT P6SM VCSH OVC015
     FM191600 31015G24KT P6SM SCT030 BKN050=

USA.gov is the U.S. government's official web portal to all federal, state and local government web resources and services.